sensor_id;sensor_type;location;lat;lon;timestamp;pressure;altitude;pressure_sealevel;temperature;humidity
51297;BME280;37380;45.186;9.792;2023-01-24T00:00:21;101727.19;;;3.65;100.00
51297;BME280;37380;45.186;9.792;2023-01-24T00:03:00;101950.81;;;4.90;100.00
51297;BME280;37380;45.186;9.792;2023-01-24T00:05:36;101775.94;;;3.82;100.00
51297;BME280;37380;45.186;9.792;2023-01-24T00:08:55;101713.78;;;3.59;100.00
51297;BME280;37380;45.186;9.792;2023-01-24T00:11:38;101796.19;;;4.10;100.00
51297;BME280;37380;45.186;9.792;2023-01-24T00:14:54;101765.63;;;3.72;100.00
51297;BME280;37380;45.186;9.792;2023-01-24T00:18:20;101876.38;;;4.54;100.00
51297;BME280;37380;45.186;9.792;2023-01-24T00:24:24;101708.97;;;3.42;100.00
51297;BME280;37380;45.186;9.792;2023-01-24T00:27:15;101763.47;;;3.45;100.00
51297;BME280;37380;45.186;9.792;2023-01-24T00:30:25;101799.09;;;3.49;100.00
51297;BME280;37380;45.186;9.792;2023-01-24T00:33:15;102073.16;;;5.32;100.00
51297;BME280;37380;45.186;9.792;2023-01-24T00:36:04;101764.81;;;3.29;100.00
51297;BME280;37380;45.186;9.792;2023-01-24T00:39:38;101743.06;;;3.05;100.00
51297;BME280;37380;45.186;9.792;2023-01-24T00:42:30;102000.84;;;4.57;100.00
51297;BME280;37380;45.186;9.792;2023-01-24T00:48:26;101910.09;;;4.22;100.00
51297;BME280;37380;45.186;9.792;2023-01-24T00:51:51;101871.81;;;3.96;100.00
51297;BME280;37380;45.186;9.792;2023-01-24T00:55:05;101808.84;;;3.31;100.00
51297;BME280;37380;45.186;9.792;2023-01-24T00:57:58;101804.88;;;3.14;100.00
51297;BME280;37380;45.186;9.792;2023-01-24T01:06:47;101831.53;;;3.03;100.00
51297;BME280;37380;45.186;9.792;2023-01-24T01:09:49;101876.53;;;3.27;100.00
51297;BME280;37380;45.186;9.792;2023-01-24T01:28:17;101808.81;;;2.78;100.00
51297;BME280;37380;45.186;9.792;2023-01-24T01:31:28;102022.00;;;4.09;100.00
51297;BME280;37380;45.186;9.792;2023-01-24T01:34:25;102165.28;;;4.84;100.00
51297;BME280;37380;45.186;9.792;2023-01-24T01:37:45;102042.56;;;4.07;100.00
51297;BME280;37380;45.186;9.792;2023-01-24T01:40:57;101857.09;;;3.00;100.00
51297;BME280;37380;45.186;9.792;2023-01-24T01:43:29;101848.81;;;2.93;100.00
51297;BME280;37380;45.186;9.792;2023-01-24T01:46:21;102028.72;;;4.07;100.00
51297;BME280;37380;45.186;9.792;2023-01-24T01:49:35;101793.59;;;2.40;100.00
51297;BME280;37380;45.186;9.792;2023-01-24T01:52:06;102030.06;;;3.81;100.00
51297;BME280;37380;45.186;9.792;2023-01-24T01:54:58;101806.50;;;2.51;100.00
51297;BME280;37380;45.186;9.792;2023-01-24T01:57:41;101848.44;;;2.89;100.00
51297;BME280;37380;45.186;9.792;2023-01-24T02:00:30;101846.09;;;2.82;100.00
51297;BME280;37380;45.186;9.792;2023-01-24T02:03:22;102181.84;;;4.86;100.00
51297;BME280;37380;45.186;9.792;2023-01-24T02:07:02;102201.13;;;4.90;100.00
51297;BME280;37380;45.186;9.792;2023-01-24T02:10:15;101983.59;;;3.40;100.00
51297;BME280;37380;45.186;9.792;2023-01-24T02:13:03;101839.00;;;2.69;100.00
51297;BME280;37380;45.186;9.792;2023-01-24T02:16:12;101841.31;;;2.76;100.00
51297;BME280;37380;45.186;9.792;2023-01-24T02:19:31;102066.91;;;3.99;100.00
51297;BME280;37380;45.186;9.792;2023-01-24T02:25:13;102221.88;;;4.69;100.00
51297;BME280;37380;45.186;9.792;2023-01-24T02:28:07;101877.28;;;2.44;100.00
51297;BME280;37380;45.186;9.792;2023-01-24T02:30:58;101887.13;;;2.48;100.00
51297;BME280;37380;45.186;9.792;2023-01-24T02:33:44;101971.94;;;3.05;100.00
51297;BME280;37380;45.186;9.792;2023-01-24T02:37:10;102217.00;;;4.52;100.00
51297;BME280;37380;45.186;9.792;2023-01-24T02:39:55;101864.44;;;2.54;100.00
51297;BME280;37380;45.186;9.792;2023-01-24T02:43:11;101851.88;;;2.38;100.00
51297;BME280;37380;45.186;9.792;2023-01-24T02:45:58;101896.28;;;2.55;100.00
51297;BME280;37380;45.186;9.792;2023-01-24T02:49:10;101920.06;;;2.71;100.00
51297;BME280;37380;45.186;9.792;2023-01-24T02:52:33;101878.06;;;2.43;100.00
51297;BME280;37380;45.186;9.792;2023-01-24T02:55:28;101861.81;;;2.44;100.00
51297;BME280;37380;45.186;9.792;2023-01-24T02:58:02;101850.22;;;2.39;100.00
51297;BME280;37380;45.186;9.792;2023-01-24T03:01:05;102089.41;;;3.59;100.00
51297;BME280;37380;45.186;9.792;2023-01-24T03:03:46;102063.44;;;3.48;100.00
51297;BME280;37380;45.186;9.792;2023-01-24T03:06:37;102247.91;;;4.61;100.00
51297;BME280;37380;45.186;9.792;2023-01-24T03:09:11;102225.66;;;4.63;100.00
51297;BME280;37380;45.186;9.792;2023-01-24T03:12:16;102092.63;;;3.77;100.00
51297;BME280;37380;45.186;9.792;2023-01-24T03:15:48;102041.19;;;3.39;100.00
51297;BME280;37380;45.186;9.792;2023-01-24T03:18:55;102015.47;;;3.31;100.00
51297;BME280;37380;45.186;9.792;2023-01-24T03:21:59;102002.72;;;3.12;100.00
51297;BME280;37380;45.186;9.792;2023-01-24T03:24:59;101856.03;;;2.46;100.00
51297;BME280;37380;45.186;9.792;2023-01-24T03:28:06;101878.63;;;2.59;100.00
51297;BME280;37380;45.186;9.792;2023-01-24T03:30:55;101864.91;;;2.50;100.00
51297;BME280;37380;45.186;9.792;2023-01-24T03:34:12;101906.78;;;2.77;100.00
51297;BME280;37380;45.186;9.792;2023-01-24T03:37:56;102138.13;;;4.06;100.00
51297;BME280;37380;45.186;9.792;2023-01-24T03:56:28;102203.91;;;4.61;100.00
51297;BME280;37380;45.186;9.792;2023-01-24T03:59:12;101903.38;;;2.67;100.00
51297;BME280;37380;45.186;9.792;2023-01-24T04:01:47;102112.16;;;3.94;100.00
51297;BME280;37380;45.186;9.792;2023-01-24T04:04:52;102165.16;;;3.89;100.00
51297;BME280;37380;45.186;9.792;2023-01-24T04:08:02;102167.59;;;3.77;100.00
51297;BME280;37380;45.186;9.792;2023-01-24T04:10:30;101904.75;;;2.33;100.00
51297;BME280;37380;45.186;9.792;2023-01-24T04:13:04;102229.97;;;4.11;100.00
51297;BME280;37380;45.186;9.792;2023-01-24T04:15:58;101909.44;;;2.08;100.00
51297;BME280;37380;45.186;9.792;2023-01-24T04:18:38;101878.84;;;1.92;100.00
51297;BME280;37380;45.186;9.792;2023-01-24T04:21:06;102129.16;;;3.31;100.00
51297;BME280;37380;45.186;9.792;2023-01-24T04:23:34;102118.66;;;3.19;100.00
51297;BME280;37380;45.186;9.792;2023-01-24T04:26:02;102125.66;;;3.20;100.00
51297;BME280;37380;45.186;9.792;2023-01-24T04:28:31;101947.03;;;2.25;100.00
51297;BME280;37380;45.186;9.792;2023-01-24T04:31:02;102134.47;;;3.32;100.00
51297;BME280;37380;45.186;9.792;2023-01-24T04:33:54;102212.06;;;3.73;100.00
51297;BME280;37380;45.186;9.792;2023-01-24T04:36:55;102262.66;;;4.00;100.00
51297;BME280;37380;45.186;9.792;2023-01-24T04:39:31;102115.53;;;3.13;100.00
51297;BME280;37380;45.186;9.792;2023-01-24T04:42:11;102141.44;;;3.33;100.00
51297;BME280;37380;45.186;9.792;2023-01-24T04:44:39;102263.81;;;4.04;100.00
51297;BME280;37380;45.186;9.792;2023-01-24T04:47:09;102129.41;;;3.24;100.00
51297;BME280;37380;45.186;9.792;2023-01-24T04:49:36;101948.03;;;2.17;100.00
51297;BME280;37380;45.186;9.792;2023-01-24T04:52:11;101969.63;;;2.38;100.00
51297;BME280;37380;45.186;9.792;2023-01-24T04:54:51;102233.53;;;3.82;100.00
51297;BME280;37380;45.186;9.792;2023-01-24T04:57:18;102315.81;;;4.07;100.00
51297;BME280;37380;45.186;9.792;2023-01-24T04:59:54;102297.28;;;3.92;100.00
51297;BME280;37380;45.186;9.792;2023-01-24T05:02:55;102122.38;;;2.73;100.00
51297;BME280;37380;45.186;9.792;2023-01-24T05:05:39;102298.09;;;3.62;100.00
51297;BME280;37380;45.186;9.792;2023-01-24T05:08:06;102166.41;;;3.04;100.00
51297;BME280;37380;45.186;9.792;2023-01-24T05:10:34;102295.19;;;3.78;100.00
51297;BME280;37380;45.186;9.792;2023-01-24T05:13:08;102041.84;;;2.38;100.00
51297;BME280;37380;45.186;9.792;2023-01-24T05:16:09;102256.22;;;3.56;100.00
51297;BME280;37380;45.186;9.792;2023-01-24T05:19:04;102154.47;;;2.95;100.00
51297;BME280;37380;45.186;9.792;2023-01-24T05:21:34;101930.84;;;1.78;100.00
51297;BME280;37380;45.186;9.792;2023-01-24T05:24:03;101930.03;;;1.69;100.00
51297;BME280;37380;45.186;9.792;2023-01-24T05:26:30;102297.00;;;3.79;100.00
51297;BME280;37380;45.186;9.792;2023-01-24T05:28:58;102248.66;;;3.38;100.00
51297;BME280;37380;45.186;9.792;2023-01-24T05:31:29;101945.09;;;1.74;100.00
51297;BME280;37380;45.186;9.792;2023-01-24T05:34:04;102200.31;;;2.98;100.00
51297;BME280;37380;45.186;9.792;2023-01-24T05:37:02;102185.00;;;3.10;100.00
51297;BME280;37380;45.186;9.792;2023-01-24T05:39:31;101965.09;;;2.06;100.00
51297;BME280;37380;45.186;9.792;2023-01-24T05:41:59;102337.28;;;4.06;100.00
51297;BME280;37380;45.186;9.792;2023-01-24T05:44:34;102013.72;;;2.31;100.00
51297;BME280;37380;45.186;9.792;2023-01-24T05:47:02;102069.28;;;2.56;100.00
51297;BME280;37380;45.186;9.792;2023-01-24T05:49:34;102220.97;;;3.27;100.00
51297;BME280;37380;45.186;9.792;2023-01-24T05:52:02;102194.72;;;3.12;100.00
51297;BME280;37380;45.186;9.792;2023-01-24T05:54:48;102126.88;;;2.94;100.00
51297;BME280;37380;45.186;9.792;2023-01-24T05:57:27;102228.78;;;3.48;100.00
51297;BME280;37380;45.186;9.792;2023-01-24T06:00:34;102347.09;;;4.10;100.00
51297;BME280;37380;45.186;9.792;2023-01-24T06:03:40;102277.06;;;3.78;100.00
51297;BME280;37380;45.186;9.792;2023-01-24T06:06:34;102225.09;;;3.25;100.00
51297;BME280;37380;45.186;9.792;2023-01-24T06:09:02;102214.53;;;3.32;100.00
51297;BME280;37380;45.186;9.792;2023-01-24T06:11:37;102304.06;;;3.71;100.00
51297;BME280;37380;45.186;9.792;2023-01-24T06:14:38;102060.22;;;2.22;100.00
51297;BME280;37380;45.186;9.792;2023-01-24T06:17:39;102279.75;;;3.30;100.00
51297;BME280;37380;45.186;9.792;2023-01-24T06:20:33;102196.69;;;2.96;100.00
51297;BME280;37380;45.186;9.792;2023-01-24T06:23:05;102411.75;;;4.00;100.00
51297;BME280;37380;45.186;9.792;2023-01-24T06:25:39;102391.78;;;3.89;100.00
51297;BME280;37380;45.186;9.792;2023-01-24T06:28:10;102378.06;;;3.79;100.00
51297;BME280;37380;45.186;9.792;2023-01-24T06:30:39;102074.56;;;1.91;100.00
51297;BME280;37380;45.186;9.792;2023-01-24T06:37:45;102402.13;;;3.59;100.00
51297;BME280;37380;45.186;9.792;2023-01-24T06:40:54;102403.56;;;3.66;100.00
51297;BME280;37380;45.186;9.792;2023-01-24T06:43:49;102070.94;;;1.70;100.00
51297;BME280;37380;45.186;9.792;2023-01-24T06:46:17;102261.25;;;2.77;100.00
51297;BME280;37380;45.186;9.792;2023-01-24T06:48:45;102049.22;;;1.57;100.00
51297;BME280;37380;45.186;9.792;2023-01-24T06:51:18;102173.72;;;2.32;100.00
51297;BME280;37380;45.186;9.792;2023-01-24T06:54:12;102247.88;;;2.62;100.00
51297;BME280;37380;45.186;9.792;2023-01-24T06:56:39;102420.91;;;3.67;100.00
51297;BME280;37380;45.186;9.792;2023-01-24T06:59:06;102427.97;;;3.78;100.00
51297;BME280;37380;45.186;9.792;2023-01-24T07:01:33;102310.38;;;3.06;100.00
51297;BME280;37380;45.186;9.792;2023-01-24T07:04:01;102047.81;;;1.61;100.00
51297;BME280;37380;45.186;9.792;2023-01-24T07:06:35;102075.03;;;1.68;100.00
51297;BME280;37380;45.186;9.792;2023-01-24T07:09:29;102313.16;;;2.99;100.00
51297;BME280;37380;45.186;9.792;2023-01-24T07:12:03;102240.88;;;2.61;100.00
51297;BME280;37380;45.186;9.792;2023-01-24T07:14:57;102212.50;;;2.42;100.00
51297;BME280;37380;45.186;9.792;2023-01-24T07:17:24;102234.22;;;2.44;100.00
51297;BME280;37380;45.186;9.792;2023-01-24T07:19:52;102313.94;;;2.98;100.00
51297;BME280;37380;45.186;9.792;2023-01-24T07:22:21;102305.41;;;2.99;100.00
51297;BME280;37380;45.186;9.792;2023-01-24T07:24:49;102456.78;;;3.83;100.00
51297;BME280;37380;45.186;9.792;2023-01-24T07:27:16;102438.50;;;3.71;100.00
51297;BME280;37380;45.186;9.792;2023-01-24T07:29:43;102261.88;;;2.75;100.00
51297;BME280;37380;45.186;9.792;2023-01-24T07:32:10;102357.53;;;3.14;100.00
51297;BME280;37380;45.186;9.792;2023-01-24T07:34:44;102467.31;;;3.95;100.00
51297;BME280;37380;45.186;9.792;2023-01-24T07:37:45;102319.25;;;3.00;100.00
51297;BME280;37380;45.186;9.792;2023-01-24T07:40:39;102353.22;;;3.23;100.00
51297;BME280;37380;45.186;9.792;2023-01-24T07:43:07;102133.50;;;1.96;100.00
51297;BME280;37380;45.186;9.792;2023-01-24T07:45:34;102206.09;;;2.47;100.00
51297;BME280;37380;45.186;9.792;2023-01-24T07:48:06;102362.81;;;3.34;100.00
51297;BME280;37380;45.186;9.792;2023-01-24T07:50:42;102312.94;;;3.06;100.00
51297;BME280;37380;45.186;9.792;2023-01-24T07:53:36;102308.47;;;3.14;100.00
51297;BME280;37380;45.186;9.792;2023-01-24T07:56:04;102448.22;;;4.03;100.00
51297;BME280;37380;45.186;9.792;2023-01-24T07:58:36;102317.44;;;3.47;100.00
51297;BME280;37380;45.186;9.792;2023-01-24T08:01:03;102248.25;;;3.05;100.00
51297;BME280;37380;45.186;9.792;2023-01-24T08:03:30;102156.84;;;2.74;100.00
51297;BME280;37380;45.186;9.792;2023-01-24T08:05:57;102457.72;;;4.52;100.00
51297;BME280;37380;45.186;9.792;2023-01-24T08:08:24;102286.53;;;3.38;100.00
51297;BME280;37380;45.186;9.792;2023-01-24T08:10:52;102230.69;;;3.01;100.00
51297;BME280;37380;45.186;9.792;2023-01-24T08:13:25;102460.16;;;4.50;100.00
51297;BME280;37380;45.186;9.792;2023-01-24T08:16:26;102394.19;;;4.06;100.00
51297;BME280;37380;45.186;9.792;2023-01-24T08:19:20;102332.13;;;3.67;100.00
51297;BME280;37380;45.186;9.792;2023-01-24T08:22:08;102271.00;;;3.09;100.00
51297;BME280;37380;45.186;9.792;2023-01-24T08:24:36;102218.84;;;2.84;100.00
51297;BME280;37380;45.186;9.792;2023-01-24T08:27:11;102259.00;;;2.90;100.00
51297;BME280;37380;45.186;9.792;2023-01-24T08:30:10;102292.41;;;3.08;100.00
51297;BME280;37380;45.186;9.792;2023-01-24T08:32:44;102500.13;;;4.04;100.00
51297;BME280;37380;45.186;9.792;2023-01-24T08:35:38;102141.81;;;2.02;100.00
51297;BME280;37380;45.186;9.792;2023-01-24T08:38:05;102551.69;;;4.22;100.00
51297;BME280;37380;45.186;9.792;2023-01-24T08:40:39;102462.69;;;4.01;100.00
51297;BME280;37380;45.186;9.792;2023-01-24T08:43:40;102523.75;;;4.28;100.00
51297;BME280;37380;45.186;9.792;2023-01-24T08:46:41;102265.44;;;2.85;100.00
51297;BME280;37380;45.186;9.792;2023-01-24T08:49:35;102464.63;;;4.22;100.00
51297;BME280;37380;45.186;9.792;2023-01-24T08:52:09;102404.34;;;3.84;100.00
51297;BME280;37380;45.186;9.792;2023-01-24T08:55:11;102516.09;;;4.48;100.00
51297;BME280;37380;45.186;9.792;2023-01-24T08:58:05;102141.47;;;2.46;100.00
51297;BME280;37380;45.186;9.792;2023-01-24T09:00:39;102401.69;;;4.03;100.00
51297;BME280;37380;45.186;9.792;2023-01-24T09:03:33;102546.91;;;4.95;100.00
51297;BME280;37380;45.186;9.792;2023-01-24T09:06:02;102470.66;;;4.52;100.00
51297;BME280;37380;45.186;9.792;2023-01-24T09:08:30;102182.09;;;2.97;100.00
51297;BME280;37380;45.186;9.792;2023-01-24T09:10:59;102536.03;;;4.89;100.00
51297;BME280;37380;45.186;9.792;2023-01-24T09:13:33;102547.81;;;5.06;100.00
51297;BME280;37380;45.186;9.792;2023-01-24T09:16:28;102229.06;;;3.40;100.00
51297;BME280;37380;45.186;9.792;2023-01-24T09:18:55;102416.34;;;4.72;100.00
51297;BME280;37380;45.186;9.792;2023-01-24T09:21:22;102418.94;;;4.93;100.00
51297;BME280;37380;45.186;9.792;2023-01-24T09:23:53;102431.25;;;4.95;100.00
51297;BME280;37380;45.186;9.792;2023-01-24T09:26:21;102414.41;;;5.01;100.00
51297;BME280;37380;45.186;9.792;2023-01-24T09:28:48;102525.94;;;5.43;100.00
51297;BME280;37380;45.186;9.792;2023-01-24T09:31:23;102513.25;;;5.46;100.00
51297;BME280;37380;45.186;9.792;2023-01-24T09:34:17;102495.22;;;5.17;100.00
51297;BME280;37380;45.186;9.792;2023-01-24T09:36:47;102521.00;;;5.66;100.00
51297;BME280;37380;45.186;9.792;2023-01-24T09:39:15;102432.88;;;5.46;100.00
51297;BME280;37380;45.186;9.792;2023-01-24T09:42:03;102555.91;;;6.33;100.00
51297;BME280;37380;45.186;9.792;2023-01-24T09:48:11;102380.03;;;5.44;100.00
51297;BME280;37380;45.186;9.792;2023-01-24T09:51:14;102564.91;;;6.26;100.00
51297;BME280;37380;45.186;9.792;2023-01-24T09:53:52;102494.53;;;5.81;100.00
51297;BME280;37380;45.186;9.792;2023-01-24T09:56:54;102512.13;;;6.16;100.00
51297;BME280;37380;45.186;9.792;2023-01-24T09:59:38;102500.34;;;6.09;100.00
51297;BME280;37380;45.186;9.792;2023-01-24T10:02:17;102200.63;;;4.73;100.00
51297;BME280;37380;45.186;9.792;2023-01-24T10:04:46;102203.25;;;4.63;100.00
51297;BME280;37380;45.186;9.792;2023-01-24T10:07:25;102568.56;;;6.61;100.00
51297;BME280;37380;45.186;9.792;2023-01-24T10:10:20;102277.41;;;5.26;100.00
51297;BME280;37380;45.186;9.792;2023-01-24T10:13:23;102569.16;;;7.34;100.00
51297;BME280;37380;45.186;9.792;2023-01-24T10:19:40;102560.09;;;6.85;100.00
51297;BME280;37380;45.186;9.792;2023-01-24T10:24:59;102532.44;;;6.64;100.00
51297;BME280;37380;45.186;9.792;2023-01-24T10:27:35;102344.16;;;5.71;100.00
51297;BME280;37380;45.186;9.792;2023-01-24T10:30:21;102211.16;;;5.07;100.00
51297;BME280;37380;45.186;9.792;2023-01-24T10:33:18;102430.94;;;6.50;100.00
51297;BME280;37380;45.186;9.792;2023-01-24T10:36:00;102557.00;;;7.23;100.00
51297;BME280;37380;45.186;9.792;2023-01-24T10:38:31;102281.19;;;5.83;100.00
51297;BME280;37380;45.186;9.792;2023-01-24T10:41:24;102320.84;;;6.15;100.00
51297;BME280;37380;45.186;9.792;2023-01-24T10:44:05;102279.56;;;5.74;100.00
51297;BME280;37380;45.186;9.792;2023-01-24T10:47:13;102547.28;;;7.54;100.00
51297;BME280;37380;45.186;9.792;2023-01-24T10:50:17;102396.91;;;6.57;100.00
51297;BME280;37380;45.186;9.792;2023-01-24T10:52:45;102234.50;;;5.61;100.00
51297;BME280;37380;45.186;9.792;2023-01-24T10:57:53;102332.13;;;6.15;100.00
51297;BME280;37380;45.186;9.792;2023-01-24T11:00:32;102403.91;;;6.58;100.00
51297;BME280;37380;45.186;9.792;2023-01-24T11:03:29;102435.22;;;7.06;100.00
51297;BME280;37380;45.186;9.792;2023-01-24T11:06:03;102285.53;;;6.50;100.00
51297;BME280;37380;45.186;9.792;2023-01-24T11:11:42;102541.56;;;8.17;100.00
51297;BME280;37380;45.186;9.792;2023-01-24T11:14:37;102439.13;;;8.05;100.00
51297;BME280;37380;45.186;9.792;2023-01-24T11:17:32;102378.66;;;7.25;100.00
51297;BME280;37380;45.186;9.792;2023-01-24T11:20:20;102512.03;;;7.93;100.00
51297;BME280;37380;45.186;9.792;2023-01-24T11:22:50;102395.50;;;7.30;100.00
51297;BME280;37380;45.186;9.792;2023-01-24T11:25:17;102166.66;;;5.45;100.00
51297;BME280;37380;45.186;9.792;2023-01-24T11:27:48;102177.81;;;5.66;100.00
51297;BME280;37380;45.186;9.792;2023-01-24T11:30:19;102372.34;;;6.76;100.00
51297;BME280;37380;45.186;9.792;2023-01-24T11:35:55;102489.66;;;7.26;100.00
51297;BME280;37380;45.186;9.792;2023-01-24T11:41:10;102508.41;;;7.79;100.00
51297;BME280;37380;45.186;9.792;2023-01-24T11:47:17;102264.50;;;6.35;100.00
51297;BME280;37380;45.186;9.792;2023-01-24T11:55:18;102472.28;;;7.37;100.00
51297;BME280;37380;45.186;9.792;2023-01-24T12:01:01;102240.75;;;7.00;100.00
51297;BME280;37380;45.186;9.792;2023-01-24T12:08:20;102449.84;;;8.81;100.00
51297;BME280;37380;45.186;9.792;2023-01-24T12:13:46;102227.59;;;7.82;100.00
51297;BME280;37380;45.186;9.792;2023-01-24T12:23:04;102408.09;;;8.93;100.00
51297;BME280;37380;45.186;9.792;2023-01-24T12:25:39;102199.22;;;7.74;100.00
51297;BME280;37380;45.186;9.792;2023-01-24T12:28:14;102363.59;;;8.65;100.00
51297;BME280;37380;45.186;9.792;2023-01-24T12:30:47;102393.41;;;8.82;100.00
51297;BME280;37380;45.186;9.792;2023-01-24T12:33:23;102378.78;;;8.59;100.00
51297;BME280;37380;45.186;9.792;2023-01-24T12:35:59;102238.06;;;7.96;100.00
51297;BME280;37380;45.186;9.792;2023-01-24T12:38:36;102450.38;;;9.27;100.00
51297;BME280;37380;45.186;9.792;2023-01-24T12:41:28;102221.81;;;7.86;100.00
51297;BME280;37380;45.186;9.792;2023-01-24T12:44:34;102414.53;;;8.73;100.00
51297;BME280;37380;45.186;9.792;2023-01-24T12:47:50;102160.38;;;7.26;100.00
51297;BME280;37380;45.186;9.792;2023-01-24T12:54:20;102091.13;;;6.67;100.00
51297;BME280;37380;45.186;9.792;2023-01-24T12:56:52;102431.16;;;8.75;100.00
51297;BME280;37380;45.186;9.792;2023-01-24T12:59:27;102314.56;;;7.98;100.00
51297;BME280;37380;45.186;9.792;2023-01-24T13:08:32;102426.69;;;8.86;100.00
51297;BME280;37380;45.186;9.792;2023-01-24T13:11:43;102402.06;;;8.44;100.00
51297;BME280;37380;45.186;9.792;2023-01-24T13:14:55;102309.75;;;7.79;100.00
51297;BME280;37380;45.186;9.792;2023-01-24T13:22:51;102126.41;;;7.00;100.00
51297;BME280;37380;45.186;9.792;2023-01-24T13:30:47;102341.53;;;8.23;100.00
51297;BME280;37380;45.186;9.792;2023-01-24T13:33:19;102065.81;;;6.76;100.00
51297;BME280;37380;45.186;9.792;2023-01-24T13:35:50;102265.19;;;7.74;100.00
51297;BME280;37380;45.186;9.792;2023-01-24T13:38:27;102070.47;;;6.56;100.00
51297;BME280;37380;45.186;9.792;2023-01-24T13:41:12;102201.19;;;7.28;100.00
51297;BME280;37380;45.186;9.792;2023-01-24T13:51:42;102145.75;;;6.92;100.00
51297;BME280;37380;45.186;9.792;2023-01-24T13:54:43;102117.84;;;6.89;100.00
51297;BME280;37380;45.186;9.792;2023-01-24T13:57:31;102074.19;;;6.48;100.00
51297;BME280;37380;45.186;9.792;2023-01-24T14:02:41;102425.91;;;8.62;100.00
51297;BME280;37380;45.186;9.792;2023-01-24T14:08:13;102305.47;;;7.67;100.00
51297;BME280;37380;45.186;9.792;2023-01-24T14:10:49;102135.50;;;6.70;100.00
51297;BME280;37380;45.186;9.792;2023-01-24T14:13:58;102426.63;;;8.48;100.00
51297;BME280;37380;45.186;9.792;2023-01-24T14:17:03;102423.59;;;8.30;100.00
51297;BME280;37380;45.186;9.792;2023-01-24T14:19:57;102421.47;;;8.24;100.00
51297;BME280;37380;45.186;9.792;2023-01-24T14:22:34;102307.75;;;7.63;100.00
51297;BME280;37380;45.186;9.792;2023-01-24T14:31:23;102306.25;;;7.78;100.00
51297;BME280;37380;45.186;9.792;2023-01-24T14:37:12;102205.25;;;7.12;100.00
51297;BME280;37380;45.186;9.792;2023-01-24T14:42:51;102162.25;;;6.69;100.00
51297;BME280;37380;45.186;9.792;2023-01-24T14:46:09;102072.41;;;6.24;100.00
51297;BME280;37380;45.186;9.792;2023-01-24T14:49:14;102446.28;;;8.07;100.00
51297;BME280;37380;45.186;9.792;2023-01-24T14:57:54;102409.75;;;7.82;100.00
51297;BME280;37380;45.186;9.792;2023-01-24T15:00:23;102214.69;;;6.75;100.00
51297;BME280;37380;45.186;9.792;2023-01-24T15:05:27;102043.88;;;5.66;100.00
51297;BME280;37380;45.186;9.792;2023-01-24T15:07:56;102040.50;;;5.67;100.00
51297;BME280;37380;45.186;9.792;2023-01-24T15:10:36;102194.34;;;6.69;100.00
51297;BME280;37380;45.186;9.792;2023-01-24T15:13:43;102240.44;;;7.19;100.00
51297;BME280;37380;45.186;9.792;2023-01-24T15:16:46;102195.78;;;6.89;100.00
51297;BME280;37380;45.186;9.792;2023-01-24T15:19:20;102187.91;;;6.88;100.00
51297;BME280;37380;45.186;9.792;2023-01-24T15:21:53;102113.03;;;6.35;100.00
51297;BME280;37380;45.186;9.792;2023-01-24T15:24:29;102292.63;;;7.22;100.00
51297;BME280;37380;45.186;9.792;2023-01-24T15:26:59;102094.28;;;6.04;100.00
51297;BME280;37380;45.186;9.792;2023-01-24T15:29:48;102413.81;;;7.90;100.00
51297;BME280;37380;45.186;9.792;2023-01-24T15:35:51;102075.06;;;6.02;100.00
51297;BME280;37380;45.186;9.792;2023-01-24T15:38:28;102413.72;;;7.77;100.00
51297;BME280;37380;45.186;9.792;2023-01-24T15:44:00;102418.00;;;7.53;100.00
51297;BME280;37380;45.186;9.792;2023-01-24T15:46:57;102437.69;;;7.49;100.00
51297;BME280;37380;45.186;9.792;2023-01-24T15:49:58;102052.38;;;5.42;100.00
51297;BME280;37380;45.186;9.792;2023-01-24T15:52:26;102290.09;;;6.65;100.00
51297;BME280;37380;45.186;9.792;2023-01-24T15:55:00;102423.38;;;7.21;100.00
51297;BME280;37380;45.186;9.792;2023-01-24T15:58:01;102047.16;;;5.08;100.00
51297;BME280;37380;45.186;9.792;2023-01-24T16:01:03;102293.81;;;6.23;100.00
51297;BME280;37380;45.186;9.792;2023-01-24T16:04:12;102254.81;;;5.89;100.00
51297;BME280;37380;45.186;9.792;2023-01-24T16:07:15;102269.09;;;5.94;100.00
51297;BME280;37380;45.186;9.792;2023-01-24T16:09:51;102294.63;;;6.00;100.00
51297;BME280;37380;45.186;9.792;2023-01-24T16:12:52;102326.34;;;6.07;100.00
51297;BME280;37380;45.186;9.792;2023-01-24T16:15:46;102272.06;;;5.66;100.00
51297;BME280;37380;45.186;9.792;2023-01-24T16:18:14;102318.16;;;5.81;100.00
51297;BME280;37380;45.186;9.792;2023-01-24T16:20:41;102366.72;;;6.26;100.00
51297;BME280;37380;45.186;9.792;2023-01-24T16:23:08;102365.44;;;5.99;100.00
51297;BME280;37380;45.186;9.792;2023-01-24T16:25:35;102412.84;;;6.18;100.00
51297;BME280;37380;45.186;9.792;2023-01-24T16:28:03;102333.16;;;5.63;100.00
51297;BME280;37380;45.186;9.792;2023-01-24T16:30:37;102185.75;;;4.71;100.00
51297;BME280;37380;45.186;9.792;2023-01-24T16:33:32;102313.44;;;5.33;100.00
51297;BME280;37380;45.186;9.792;2023-01-24T16:36:06;102204.81;;;4.61;100.00
51297;BME280;37380;45.186;9.792;2023-01-24T16:39:06;102175.09;;;4.15;100.00
51297;BME280;37380;45.186;9.792;2023-01-24T16:42:01;102290.22;;;4.82;100.00
51297;BME280;37380;45.186;9.792;2023-01-24T16:44:35;102427.53;;;5.65;100.00
51297;BME280;37380;45.186;9.792;2023-01-24T16:47:29;102422.66;;;5.37;100.00
51297;BME280;37380;45.186;9.792;2023-01-24T16:49:57;102430.44;;;5.48;100.00
51297;BME280;37380;45.186;9.792;2023-01-24T16:52:25;102222.94;;;4.10;100.00
51297;BME280;37380;45.186;9.792;2023-01-24T16:54:59;102239.66;;;4.14;100.00
51297;BME280;37380;45.186;9.792;2023-01-24T16:57:54;102290.91;;;4.28;100.00
51297;BME280;37380;45.186;9.792;2023-01-24T17:00:55;102432.13;;;5.37;100.00